Youree, Louisiana
Current Conditions -  °F | °C
As of 3:58 AM on Sunday 25 Jan 2015 (Local Time) from KBAD Reporting Station
Clear Clear  
Wind Chill: 37°   Ceiling: Unl
Heat Index: 37°   Visibility: 10mi
Dew Point: 34°   Wind: 3mph
Humidity: 88%   Direction: 160°SSE
Pressure: 29.96"   Gusts: NA
Location:  32.457°N, 93.7096°W
Report Text: KBAD 250958Z AUTO 16003KT 10SM CLR 03/01 A2996 RMK AO2 SLP149 T00270009
Loading
Personal Weather Stations






























Interactive Weather Map New forecast layout! Learn more

10-Day Weather Forecast

Advertisements
Track Severe Weather on mobile